Time;durP1;ratioP1;P1;durP2;ratioP2;P2;SDS_P1;SDS_P2;PMS_P1;PMS_P2;Temp;Humidity;BMP_temperature;BMP_pressure;BME280_temperature;BME280_humidity;BME280_pressure;Samples;Min_cycle;Max_cycle;Signal;HPM_P1;HPM_P2
2022/11/18 00:15:42;;;;;;;3.05;1.30;;;;;;;;;;4984688;28;20072;-75
2022/11/18 00:18:11;;;;;;;1.95;1.00;;;;;;;;;;4975229;28;20050;-77
2022/11/18 00:20:43;;;;;;;2.38;1.02;;;;;;;;;;4988965;28;20052;-77
2022/11/18 00:26:01;;;;;;;3.10;1.00;;;;;;;;;;4958430;28;20058;-77
2022/11/18 00:33:40;;;;;;;;;;;;;;;;;;4940977;27;2056708;-74
2022/11/18 00:36:10;;;;;;;3.33;1.13;;;;;;;;;;4989414;28;19925;-79
2022/11/18 00:44:08;;;;;;;3.78;1.05;;;;;;;;;;5012494;27;2151521;-78
2022/11/18 00:46:37;;;;;;;2.15;0.98;;;;;;;;;;4969779;28;20058;-74
2022/11/18 00:51:32;;;;;;;2.42;1.00;;;;;;;;;;4892593;28;20241;-77
2022/11/18 00:53:59;;;;;;;3.75;1.20;;;;;;;;;;4955920;28;20088;-79
2022/11/18 00:56:25;;;;;;;2.03;1.10;;;;;;;;;;4993213;28;20157;-76
2022/11/18 00:58:52;;;;;;;4.15;1.00;;;;;;;;;;5018044;28;20167;-80
2022/11/18 01:01:21;;;;;;;2.42;0.90;;;;;;;;;;5050756;28;20061;-78
2022/11/18 01:03:48;;;;;;;5.20;1.02;;;;;;;;;;5031402;28;20359;-80
2022/11/18 01:06:15;;;;;;;3.72;1.00;;;;;;;;;;5045962;28;20083;-76
2022/11/18 01:08:43;;;;;;;3.00;1.20;;;;;;;;;;5051064;28;20049;-76
2022/11/18 01:13:54;;;;;;;2.63;1.00;;;;;;;;;;5024363;28;19928;-77
2022/11/18 01:16:23;;;;;;;4.00;1.30;;;;;;;;;;5052738;28;20071;-76
2022/11/18 01:18:51;;;;;;;3.13;0.93;;;;;;;;;;5053220;28;20080;-76
2022/11/18 01:21:18;;;;;;;1.67;0.88;;;;;;;;;;5024251;28;20041;-78
2022/11/18 01:23:46;;;;;;;1.73;1.02;;;;;;;;;;5025098;28;20347;-74
2022/11/18 01:26:14;;;;;;;3.38;0.90;;;;;;;;;;5038826;28;20098;-76
2022/11/18 01:28:41;;;;;;;4.70;1.30;;;;;;;;;;5050814;28;20060;-74
2022/11/18 01:31:08;;;;;;;3.10;1.35;;;;;;;;;;5038469;28;20103;-73
2022/11/18 01:33:36;;;;;;;3.85;1.00;;;;;;;;;;5043422;28;20048;-76
2022/11/18 01:36:03;;;;;;;2.17;1.30;;;;;;;;;;5049892;28;20048;-75
2022/11/18 01:38:30;;;;;;;3.20;1.17;;;;;;;;;;5051803;28;20072;-72
2022/11/18 01:40:57;;;;;;;2.70;1.10;;;;;;;;;;5046214;28;20049;-76
2022/11/18 01:43:25;;;;;;;3.03;1.40;;;;;;;;;;5062150;28;20087;-76
2022/11/18 01:45:53;;;;;;;2.20;1.00;;;;;;;;;;5063182;28;20919;-78
2022/11/18 01:48:21;;;;;;;1.52;0.82;;;;;;;;;;5064233;28;20056;-76
2022/11/18 01:50:51;;;;;;;1.67;0.90;;;;;;;;;;5053931;28;20075;-81
2022/11/18 01:53:21;;;;;;;4.78;1.10;;;;;;;;;;5050511;28;20045;-75
2022/11/18 01:55:49;;;;;;;2.20;0.98;;;;;;;;;;5028584;28;20233;-75
2022/11/18 01:58:18;;;;;;;3.13;1.20;;;;;;;;;;5058737;28;20052;-79
2022/11/18 02:00:45;;;;;;;3.25;1.00;;;;;;;;;;5057899;28;20052;-80
2022/11/18 02:03:12;;;;;;;2.45;1.20;;;;;;;;;;5048838;28;20117;-79
2022/11/18 02:05:40;;;;;;;4.03;1.05;;;;;;;;;;5057653;28;20213;-80
2022/11/18 02:08:12;;;;;;;2.53;1.10;;;;;;;;;;5052128;28;20052;-78
2022/11/18 02:10:39;;;;;;;2.90;1.10;;;;;;;;;;5044570;28;20071;-80
2022/11/18 02:13:06;;;;;;;3.55;0.93;;;;;;;;;;5053226;28;20198;-80
2022/11/18 02:15:39;;;;;;;3.25;1.38;;;;;;;;;;5034874;28;20056;-76
2022/11/18 02:18:15;;;;;;;3.30;1.02;;;;;;;;;;5020081;28;20055;-80
2022/11/18 02:20:42;;;;;;;2.08;1.00;;;;;;;;;;5049915;28;20106;-76
2022/11/18 02:23:24;;;;;;;2.08;0.98;;;;;;;;;;5048312;28;20063;-76
2022/11/18 02:25:59;;;;;;;3.42;1.00;;;;;;;;;;5029145;28;20064;-76
2022/11/18 02:28:36;;;;;;;2.65;0.80;;;;;;;;;;5063906;28;20076;-73
2022/11/18 02:31:07;;;;;;;4.00;1.10;;;;;;;;;;5060230;28;20052;-77
2022/11/18 02:33:36;;;;;;;2.08;0.80;;;;;;;;;;5053406;28;20060;-76
2022/11/18 02:36:06;;;;;;;1.42;0.90;;;;;;;;;;5058636;28;20117;-76
2022/11/18 02:38:35;;;;;;;3.70;1.30;;;;;;;;;;5044248;28;20052;-78
2022/11/18 02:41:04;;;;;;;2.33;0.90;;;;;;;;;;5059886;28;20044;-81
2022/11/18 02:43:34;;;;;;;4.30;1.00;;;;;;;;;;5042928;28;20047;-73
2022/11/18 02:46:02;;;;;;;2.85;1.20;;;;;;;;;;5076553;28;20056;-81
2022/11/18 02:48:38;;;;;;;4.35;1.20;;;;;;;;;;5038202;28;20048;-79
2022/11/18 02:51:09;;;;;;;2.72;0.88;;;;;;;;;;5033457;28;20203;-76
2022/11/18 02:53:35;;;;;;;;;;;;;;;;;;5035484;28;20075;-76
2022/11/18 02:56:03;;;;;;;1.92;0.88;;;;;;;;;;5076928;28;19924;-79
2022/11/18 02:58:33;;;;;;;2.30;0.98;;;;;;;;;;5055511;28;20051;-81
2022/11/18 03:01:00;;;;;;;1.73;1.05;;;;;;;;;;5061300;28;20048;-76
2022/11/18 03:03:28;;;;;;;2.55;0.98;;;;;;;;;;5040817;28;20105;-77
2022/11/18 03:06:02;;;;;;;2.55;0.90;;;;;;;;;;5059105;28;20105;-74
2022/11/18 03:08:33;;;;;;;2.35;1.02;;;;;;;;;;5037410;28;20059;-76
2022/11/18 03:11:07;;;;;;;1.60;0.90;;;;;;;;;;5046370;28;20052;-78
2022/11/18 03:13:40;;;;;;;2.67;1.00;;;;;;;;;;5044062;28;20060;-79
2022/11/18 03:16:09;;;;;;;1.77;0.90;;;;;;;;;;5046855;28;20143;-80
2022/11/18 03:18:41;;;;;;;3.15;0.93;;;;;;;;;;5058019;28;20052;-77
2022/11/18 03:21:12;;;;;;;1.95;0.90;;;;;;;;;;5038133;28;20069;-81
2022/11/18 03:23:41;;;;;;;2.90;0.95;;;;;;;;;;5058497;28;20052;-79
2022/11/18 03:26:11;;;;;;;5.85;1.10;;;;;;;;;;5054830;28;20064;-80
2022/11/18 03:28:40;;;;;;;1.40;0.85;;;;;;;;;;5040433;28;20052;-80
2022/11/18 03:31:10;;;;;;;2.83;0.90;;;;;;;;;;5032614;28;20056;-76
2022/11/18 03:33:39;;;;;;;1.88;0.80;;;;;;;;;;5053246;28;20058;-80
2022/11/18 03:36:07;;;;;;;2.25;0.90;;;;;;;;;;5048519;28;20068;-78
2022/11/18 03:38:38;;;;;;;2.28;0.90;;;;;;;;;;5051458;28;20044;-76
2022/11/18 03:41:07;;;;;;;2.50;0.98;;;;;;;;;;5037929;28;20151;-76
2022/11/18 03:43:36;;;;;;;3.47;1.10;;;;;;;;;;5048331;28;20060;-78
2022/11/18 03:46:06;;;;;;;2.13;0.95;;;;;;;;;;5054304;28;20049;-77
2022/11/18 03:48:36;;;;;;;3.72;0.93;;;;;;;;;;5058738;28;20060;-73
2022/11/18 03:51:06;;;;;;;3.35;0.90;;;;;;;;;;5048820;28;20059;-73
2022/11/18 03:53:35;;;;;;;3.42;1.00;;;;;;;;;;5060012;28;20048;-79
2022/11/18 03:56:07;;;;;;;3.45;0.90;;;;;;;;;;5054476;28;20080;-77
2022/11/18 03:58:35;;;;;;;2.58;1.00;;;;;;;;;;5059108;28;20056;-75
2022/11/18 04:01:07;;;;;;;1.98;0.95;;;;;;;;;;5056505;28;20056;-76
2022/11/18 04:03:34;;;;;;;1.63;0.98;;;;;;;;;;5063193;28;20052;-81
2022/11/18 04:06:04;;;;;;;1.98;0.90;;;;;;;;;;5047825;28;20125;-77
2022/11/18 04:08:35;;;;;;;3.50;0.90;;;;;;;;;;5057303;28;20047;-77
2022/11/18 04:11:06;;;;;;;1.80;0.80;;;;;;;;;;5046446;28;20139;-80
2022/11/18 04:13:35;;;;;;;1.58;0.90;;;;;;;;;;5057635;28;20056;-77
2022/11/18 04:16:08;;;;;;;1.73;0.85;;;;;;;;;;5048275;28;20051;-80
2022/11/18 04:18:35;;;;;;;3.22;0.82;;;;;;;;;;5057090;28;20047;-73
2022/11/18 04:21:02;;;;;;;1.73;0.90;;;;;;;;;;5054192;28;20056;-72
2022/11/18 04:23:29;;;;;;;1.48;0.77;;;;;;;;;;5051200;28;20081;-77
2022/11/18 04:25:56;;;;;;;0.98;0.70;;;;;;;;;;5046258;28;20123;-75
2022/11/18 04:28:24;;;;;;;1.90;1.00;;;;;;;;;;5066852;28;20052;-78
2022/11/18 04:30:50;;;;;;;3.28;1.13;;;;;;;;;;5058667;28;20056;-76
2022/11/18 04:33:17;;;;;;;1.95;1.10;;;;;;;;;;5017445;28;20052;-77
2022/11/18 04:35:46;;;;;;;1.38;0.88;;;;;;;;;;5057358;28;20055;-80
2022/11/18 04:38:12;;;;;;;;;;;;;;;;;;5044905;28;20545;-77
2022/11/18 04:40:39;;;;;;;1.75;0.90;;;;;;;;;;5059986;28;19946;-75
2022/11/18 04:43:06;;;;;;;4.07;1.02;;;;;;;;;;5049136;28;20048;-78
2022/11/18 04:45:34;;;;;;;3.13;1.00;;;;;;;;;;5046790;28;20040;-77
2022/11/18 04:48:01;;;;;;;2.38;0.98;;;;;;;;;;5050006;28;20064;-74
2022/11/18 04:50:28;;;;;;;2.88;1.00;;;;;;;;;;5037212;28;20080;-78
2022/11/18 04:52:56;;;;;;;2.00;0.90;;;;;;;;;;5035680;28;20048;-80
2022/11/18 04:55:22;;;;;;;1.60;0.90;;;;;;;;;;5039141;28;20044;-81
2022/11/18 04:57:49;;;;;;;1.80;0.73;;;;;;;;;;5057520;28;20144;-76
2022/11/18 05:00:16;;;;;;;2.92;0.95;;;;;;;;;;5038419;28;20079;-77
2022/11/18 05:02:45;;;;;;;1.52;0.77;;;;;;;;;;5027879;28;20048;-75
2022/11/18 05:05:12;;;;;;;1.73;1.00;;;;;;;;;;5035229;28;20081;-78
2022/11/18 05:07:38;;;;;;;4.22;1.08;;;;;;;;;;5057948;28;20115;-77
2022/11/18 05:10:06;;;;;;;1.58;0.85;;;;;;;;;;5055863;28;20154;-77
2022/11/18 05:12:51;;;;;;;2.08;0.77;;;;;;;;;;5046890;28;20131;-76
2022/11/18 05:15:18;;;;;;;1.27;0.80;;;;;;;;;;5038896;28;20053;-78
2022/11/18 05:17:47;;;;;;;1.95;0.70;;;;;;;;;;5057563;28;20084;-78
2022/11/18 05:20:14;;;;;;;2.38;1.05;;;;;;;;;;5056446;28;20117;-75
2022/11/18 05:22:40;;;;;;;2.70;0.93;;;;;;;;;;5057306;28;20143;-79
2022/11/18 05:25:10;;;;;;;2.38;0.90;;;;;;;;;;5047592;28;20048;-75
2022/11/18 05:27:37;;;;;;;1.85;0.65;;;;;;;;;;5048550;28;20067;-74
2022/11/18 05:30:04;;;;;;;2.20;0.95;;;;;;;;;;5055364;28;20079;-78
2022/11/18 05:32:31;;;;;;;2.35;0.85;;;;;;;;;;5053678;28;20129;-79
2022/11/18 05:35:01;;;;;;;2.42;0.88;;;;;;;;;;5056606;28;20067;-75
2022/11/18 05:37:28;;;;;;;3.35;1.25;;;;;;;;;;5055846;28;20083;-78
2022/11/18 05:39:55;;;;;;;2.15;0.80;;;;;;;;;;5056773;28;20117;-80
2022/11/18 05:45:10;;;;;;;1.13;0.77;;;;;;;;;;5052149;28;20052;-78
2022/11/18 05:47:58;;;;;;;1.42;0.70;;;;;;;;;;5048962;28;20444;-75
2022/11/18 05:50:26;;;;;;;2.13;1.00;;;;;;;;;;5056420;28;20103;-75
2022/11/18 05:52:54;;;;;;;2.65;0.80;;;;;;;;;;5058728;28;20048;-78
2022/11/18 05:55:24;;;;;;;4.88;1.20;;;;;;;;;;5036858;28;20088;-78
2022/11/18 05:57:51;;;;;;;2.97;1.00;;;;;;;;;;4974399;28;20149;-75
2022/11/18 06:00:18;;;;;;;1.88;0.90;;;;;;;;;;4945911;28;20049;-75
2022/11/18 06:02:46;;;;;;;2.03;0.90;;;;;;;;;;4973462;28;20133;-74
2022/11/18 06:05:13;;;;;;;3.38;0.80;;;;;;;;;;4984646;28;20156;-78
2022/11/18 06:07:43;;;;;;;1.67;0.80;;;;;;;;;;4982579;28;20279;-74
2022/11/18 06:10:13;;;;;;;1.63;0.90;;;;;;;;;;5033684;28;20048;-79
2022/11/18 06:21:48;;;;;;;1.80;0.90;;;;;;;;;;5019768;28;20547;-76
2022/11/18 06:24:16;;;;;;;1.92;0.90;;;;;;;;;;4920792;28;20059;-73
2022/11/18 06:26:43;;;;;;;2.13;1.10;;;;;;;;;;4886931;29;20052;-78
2022/11/18 06:34:19;;;;;;;1.45;0.95;;;;;;;;;;5048258;27;20631;-76
2022/11/18 06:36:48;;;;;;;2.70;1.10;;;;;;;;;;4992101;28;20053;-75
2022/11/18 06:39:15;;;;;;;2.42;1.00;;;;;;;;;;4993179;28;20132;-72
2022/11/18 06:41:43;;;;;;;2.80;1.08;;;;;;;;;;5007834;28;20045;-75
2022/11/18 06:49:31;;;;;;;2.90;1.10;;;;;;;;;;5013474;27;20856;-73
2022/11/18 06:52:06;;;;;;;3.60;1.30;;;;;;;;;;4974138;28;20143;-75
2022/11/18 06:54:33;;;;;;;2.38;1.10;;;;;;;;;;4944163;28;20149;-76
2022/11/18 07:02:17;;;;;;;3.13;1.08;;;;;;;;;;5002797;27;20969;-74
2022/11/18 07:04:46;;;;;;;2.42;1.15;;;;;;;;;;4952981;28;20521;-77
2022/11/18 07:07:16;;;;;;;3.60;1.30;;;;;;;;;;4951876;28;20509;-79
2022/11/18 07:40:14;;;;;;;4.40;1.48;;;;;;;;;;5083698;27;20157;-79
2022/11/18 07:43:09;;;;;;;3.78;1.50;;;;;;;;;;4968909;28;20256;-78
2022/11/18 07:50:52;;;;;;;1.73;1.08;;;;;;;;;;5035018;27;20425;-78
2022/11/18 07:53:20;;;;;;;3.38;1.45;;;;;;;;;;5011974;28;20056;-77
2022/11/18 07:55:49;;;;;;;4.07;1.50;;;;;;;;;;4997859;28;20051;-78
2022/11/18 07:58:20;;;;;;;4.82;1.10;;;;;;;;;;4963077;28;20061;-81
2022/11/18 08:06:02;;;;;;;3.83;1.27;;;;;;;;;;4939382;27;20472;-80
2022/11/18 08:14:06;;;;;;;4.78;1.50;;;;;;;;;;4988960;28;20490;-83
2022/11/18 08:16:39;;;;;;;2.25;1.10;;;;;;;;;;4918070;28;20087;-77
2022/11/18 08:24:20;;;;;;;5.28;1.45;;;;;;;;;;5013548;27;20438;-79
2022/11/18 08:26:50;;;;;;;3.83;1.30;;;;;;;;;;4922277;28;20047;-77
2022/11/18 08:34:42;;;;;;;3.88;1.20;;;;;;;;;;4950722;27;20464;-81
2022/11/18 08:37:11;;;;;;;1.75;1.00;;;;;;;;;;4891363;28;20071;-81
2022/11/18 08:44:54;;;;;;;3.08;1.10;;;;;;;;;;5025062;27;20482;-78
2022/11/18 08:47:21;;;;;;;2.90;1.30;;;;;;;;;;4946322;28;20050;-77
2022/11/18 08:55:03;;;;;;;4.15;1.42;;;;;;;;;;5048294;27;20517;-80
2022/11/18 08:57:30;;;;;;;3.38;1.10;;;;;;;;;;4920376;28;20524;-75
2022/11/18 09:12:46;;;;;;;2.35;1.13;;;;;;;;;;4931043;28;20186;-82
2022/11/18 09:20:22;;;;;;;4.50;1.48;;;;;;;;;;5009220;28;20452;-79
2022/11/18 09:22:51;;;;;;;2.80;1.38;;;;;;;;;;4930467;28;20058;-75
2022/11/18 09:41:18;;;;;;;4.97;1.40;;;;;;;;;;5020209;27;20566;-76
2022/11/18 09:43:54;;;;;;;6.07;1.50;;;;;;;;;;4933300;28;20082;-77
2022/11/18 09:51:39;;;;;;;3.38;1.30;;;;;;;;;;4977440;27;20533;-77
2022/11/18 09:54:12;;;;;;;4.72;1.40;;;;;;;;;;4921608;28;20624;-77
2022/11/18 10:01:45;;;;;;;4.07;1.33;;;;;;;;;;4857558;27;4154657;-77
2022/11/18 10:04:15;;;;;;;2.83;1.30;;;;;;;;;;4929231;28;20074;-79
2022/11/18 10:11:58;;;;;;;3.58;1.63;;;;;;;;;;5092613;27;20453;-77
2022/11/18 10:14:31;;;;;;;4.72;1.45;;;;;;;;;;4944290;28;20733;-77
2022/11/18 10:22:14;;;;;;;3.75;1.40;;;;;;;;;;5050176;27;20442;-76
2022/11/18 10:24:47;;;;;;;3.75;1.55;;;;;;;;;;4927151;28;20082;-76
2022/11/18 10:43:02;;;;;;;3.55;1.25;;;;;;;;;;6139862;22;3962985;-78
2022/11/18 10:45:33;;;;;;;2.42;1.27;;;;;;;;;;6053928;23;20027;-78
2022/11/18 10:58:04;;;;;;;3.30;1.40;;;;;;;;;;5025802;27;20406;-76
2022/11/18 11:00:44;;;;;;;3.22;1.40;;;;;;;;;;4902443;28;20080;-76
2022/11/18 11:08:49;;;;;;;5.25;1.50;;;;;;;;;;4990191;27;20469;-76
2022/11/18 11:11:24;;;;;;;6.00;1.38;;;;;;;;;;4921457;28;20495;-77
2022/11/18 11:19:26;;;;;;;5.10;1.30;;;;;;;;;;4964282;27;20475;-78
2022/11/18 12:07:57;;;;;;;2.80;1.30;;;;;;;;;;5927280;22;7869946;-74
2022/11/18 12:40:35;;;;;;;3.83;1.53;;;;;;;;;;6161130;22;1453524;-76
2022/11/18 12:51:35;;;;;;;3.00;1.40;;;;;;;;;;5006834;27;20455;-73
2022/11/18 12:54:15;;;;;;;2.83;1.38;;;;;;;;;;4978940;28;20097;-80
2022/11/18 13:02:03;;;;;;;3.25;1.40;;;;;;;;;;4992759;28;20444;-74
2022/11/18 13:04:30;;;;;;;4.45;1.50;;;;;;;;;;4929157;28;20191;-77
2022/11/18 13:12:14;;;;;;;2.25;1.20;;;;;;;;;;5015834;27;20423;-79
2022/11/18 13:33:21;;;;;;;4.45;1.08;;;;;;;;;;6020481;22;3284186;-75
2022/11/18 13:35:51;;;;;;;3.78;1.67;;;;;;;;;;6020574;23;20030;-82
2022/11/18 13:43:31;;;;;;;2.85;1.35;;;;;;;;;;5057857;27;20598;-75
2022/11/18 13:46:00;;;;;;;2.90;1.42;;;;;;;;;;4988867;28;20049;-76
2022/11/18 13:53:37;;;;;;;4.57;1.92;;;;;;;;;;4991704;27;20505;-78
2022/11/18 13:56:07;;;;;;;3.67;1.65;;;;;;;;;;4935966;28;20125;-79
2022/11/18 14:03:51;;;;;;;5.07;1.80;;;;;;;;;;4970991;27;20287;-79
2022/11/18 14:11:40;;;;;;;6.45;1.70;;;;;;;;;;5017056;27;20448;-79
2022/11/18 14:14:09;;;;;;;3.95;1.75;;;;;;;;;;4939075;28;20054;-79
2022/11/18 14:24:25;;;;;;;3.15;1.45;;;;;;;;;;5006992;28;20568;-76
2022/11/18 14:26:53;;;;;;;2.97;1.40;;;;;;;;;;4920743;28;20134;-78
2022/11/18 14:34:30;;;;;;;3.65;1.52;;;;;;;;;;4997294;27;20447;-79
2022/11/18 14:36:59;;;;;;;3.22;1.50;;;;;;;;;;4923016;28;20059;-74
2022/11/18 14:57:51;;;;;;;2.65;1.10;;;;;;;;;;5035249;27;1344333;-80
2022/11/18 15:08:28;;;;;;;2.20;1.30;;;;;;;;;;4857912;27;4007871;-75
2022/11/18 15:10:56;;;;;;;4.40;1.70;;;;;;;;;;4940724;28;20092;-75
2022/11/18 15:21:21;;;;;;;2.53;1.23;;;;;;;;;;4909349;28;20431;-74
2022/11/18 15:31:47;;;;;;;3.97;1.50;;;;;;;;;;5079726;27;20420;-76
2022/11/18 15:34:15;;;;;;;3.33;1.45;;;;;;;;;;4983207;28;20154;-76
2022/11/18 15:41:58;;;;;;;3.03;1.50;;;;;;;;;;5028671;27;20443;-73
2022/11/18 15:44:28;;;;;;;3.97;1.60;;;;;;;;;;4976804;28;20049;-77
2022/11/18 16:04:56;;;;;;;4.53;1.97;;;;;;;;;;6146168;22;4040659;-73
2022/11/18 16:07:24;;;;;;;3.05;1.50;;;;;;;;;;6227549;22;20148;-77
2022/11/18 16:21:00;;;;;;;4.45;1.90;;;;;;;;;;5006481;27;20468;-76
2022/11/18 16:23:30;;;;;;;3.15;1.70;;;;;;;;;;4913713;28;20051;-74
2022/11/18 16:25:57;;;;;;;3.78;1.67;;;;;;;;;;4899359;29;20064;-74
2022/11/18 16:36:28;;;;;;;6.30;2.00;;;;;;;;;;5065823;27;20480;-77
2022/11/18 16:39:01;;;;;;;3.42;1.48;;;;;;;;;;4976591;28;20072;-77
2022/11/18 16:49:15;;;;;;;3.85;1.75;;;;;;;;;;4962682;27;20428;-77
2022/11/18 16:51:50;;;;;;;7.45;2.10;;;;;;;;;;4925270;28;20192;-78
2022/11/18 17:00:18;;;;;;;4.28;2.25;;;;;;;;;;5015413;27;20434;-75
2022/11/18 17:02:48;;;;;;;8.07;2.38;;;;;;;;;;4911513;28;20817;-74
2022/11/18 17:13:03;;;;;;;4.78;1.92;;;;;;;;;;5046124;27;20447;-77
2022/11/18 17:15:39;;;;;;;7.40;2.40;;;;;;;;;;4949921;28;20059;-75
2022/11/18 17:23:23;;;;;;;7.95;2.55;;;;;;;;;;4991149;27;20484;-74
2022/11/18 17:25:52;;;;;;;10.18;2.67;;;;;;;;;;4956922;28;20051;-79
2022/11/18 17:42:16;;;;;;;6.10;2.88;;;;;;;;;;5014723;28;20476;-77
2022/11/18 17:44:45;;;;;;;5.45;2.63;;;;;;;;;;4935340;28;20075;-78
2022/11/18 17:52:32;;;;;;;7.18;2.88;;;;;;;;;;5004075;27;20441;-76
2022/11/18 17:55:14;;;;;;;5.45;2.33;;;;;;;;;;4927031;28;20117;-81
2022/11/18 18:05:44;;;;;;;9.88;3.20;;;;;;;;;;5017594;28;20424;-78
2022/11/18 18:08:16;;;;;;;7.95;3.00;;;;;;;;;;4921702;28;20054;-75
2022/11/18 18:10:50;;;;;;;6.93;2.95;;;;;;;;;;4941937;28;20057;-77
2022/11/18 18:21:38;;;;;;;6.35;2.67;;;;;;;;;;4995397;27;20435;-74
2022/11/18 18:24:09;;;;;;;7.18;2.95;;;;;;;;;;4908534;28;20051;-77
2022/11/18 18:31:51;;;;;;;8.40;3.30;;;;;;;;;;4979246;27;20521;-77
2022/11/18 18:34:25;;;;;;;6.05;2.85;;;;;;;;;;4961107;28;20046;-75
2022/11/18 18:36:52;;;;;;;7.85;3.20;;;;;;;;;;4924460;28;20054;-73
2022/11/18 18:47:22;;;;;;;8.20;3.58;;;;;;;;;;4874301;28;20056;-75
2022/11/18 18:59:51;;;;;;;8.90;3.95;;;;;;;;;;5043862;27;21107;-78
2022/11/18 19:02:23;;;;;;;7.70;3.67;;;;;;;;;;4969413;28;20122;-76
2022/11/18 19:05:10;;;;;;;9.27;3.83;;;;;;;;;;4926467;28;20046;-76
2022/11/18 19:15:21;;;;;;;10.65;4.10;;;;;;;;;;5009669;27;20431;-76
2022/11/18 19:17:51;;;;;;;8.23;3.95;;;;;;;;;;4940272;28;20061;-79
2022/11/18 19:25:45;;;;;;;10.65;4.35;;;;;;;;;;5028272;27;20400;-77
2022/11/18 19:28:15;;;;;;;8.13;4.30;;;;;;;;;;4990022;28;20050;-75
2022/11/18 19:38:33;;;;;;;10.95;5.20;;;;;;;;;;5037214;27;21160;-79
2022/11/18 19:41:04;;;;;;;14.00;5.80;;;;;;;;;;4973361;28;20069;-76
2022/11/18 19:43:31;;;;;;;11.65;5.22;;;;;;;;;;4932887;28;20055;-74
2022/11/18 19:51:18;;;;;;;12.98;5.32;;;;;;;;;;4989073;27;20425;-77
2022/11/18 19:53:47;;;;;;;12.93;5.30;;;;;;;;;;4950441;28;20058;-73
2022/11/18 19:56:42;;;;;;;;;;;;;;;;;;;;;
2022/11/18 20:04:27;;;;;;;13.55;5.55;;;;;;;;;;5029800;27;20487;-81
2022/11/18 20:06:55;;;;;;;13.70;5.85;;;;;;;;;;5004016;28;20050;-78
2022/11/18 20:09:27;;;;;;;14.38;6.20;;;;;;;;;;4936679;28;20143;-75
2022/11/18 21:19:27;;;;;;;15.88;5.32;;;;;;;;;;6114717;22;2269534;-76
2022/11/18 21:21:57;;;;;;;11.45;4.63;;;;;;;;;;6099013;23;20029;-74
2022/11/18 21:29:45;;;;;;;13.07;4.72;;;;;;;;;;5017820;27;20441;-77
2022/11/18 21:32:12;;;;;;;12.95;5.18;;;;;;;;;;5009023;28;20049;-76
2022/11/18 21:34:39;;;;;;;12.35;5.18;;;;;;;;;;5008045;28;20037;-74
2022/11/18 21:40:01;;;;;;;13.75;5.30;;;;;;;;;;5013185;27;20511;-77
2022/11/18 21:42:42;;;;;;;10.30;4.25;;;;;;;;;;4931308;28;20057;-78
2022/11/18 22:01:12;;;;;;;15.73;6.35;;;;;;;;;;6335918;21;1488731;-73
2022/11/18 22:03:49;;;;;;;12.20;5.22;;;;;;;;;;6150483;23;20029;-73
2022/11/18 22:06:21;;;;;;;13.73;5.57;;;;;;;;;;6090600;23;20026;-75
2022/11/18 22:51:40;;;;;;;13.90;5.88;;;;;;;;;;5635638;23;12652922;-77
2022/11/18 22:54:17;;;;;;;12.30;5.68;;;;;;;;;;6062645;23;20023;-75
2022/11/18 22:56:59;;;;;;;;;;;;;;;;;;;;;
2022/11/18 23:18:05;;;;;;;17.00;7.95;;;;;;;;;;6210717;22;1523885;-76
2022/11/18 23:20:40;;;;;;;14.75;6.20;;;;;;;;;;6101683;23;20038;-76
2022/11/18 23:23:28;;;;;;;14.52;5.65;;;;;;;;;;5972275;23;20106;-78
2022/11/18 23:31:23;;;;;;;13.25;5.70;;;;;;;;;;5011772;27;20429;-76
2022/11/18 23:33:54;;;;;;;12.88;5.68;;;;;;;;;;4925588;28;20142;-74
2022/11/18 23:41:56;;;;;;;12.35;5.68;;;;;;;;;;5033510;28;20517;-73
2022/11/18 23:44:43;;;;;;;15.23;6.05;;;;;;;;;;5011268;28;20060;-75
2022/11/18 23:47:38;;;;;;;13.48;5.38;;;;;;;;;;4968285;28;20055;-76
2022/11/18 23:50:28;;;;;;;13.50;5.93;;;;;;;;;;4908748;28;20090;-80
